Van Buren, MO (63965)

12:31 PM CDT on July 23, 2014 (GMT -0500)
RAWS CARR CREEK MO US (MCRRM7) Elev 1399 ft | 37.18 °N, 91.12 °W | Change Station

Current weather conditions updated 56 minutes ago

Clear
Clear
90 °F
Feels Like 110 °F
N
1
Wind Variable Wind from ESE
Gusts 2.0 mph

Today is forecast to be Cooler than yesterday. Scattered thunderstorms.

Today
High -- | Low -- °F
--% Chance of Precip.
Yesterday
High -- | Low -- °F
Precip. -- in
6:02 AM 8:18 PM
Waning Crescent, 9% visible
Pressure 29.99 in
Visibility 9.0 miles
Clouds Overcast 3400 ft
Heat Index 110 °F
Dew Point 81 °F
Humidity 76%
Rainfall 0.00 in
Snow Depth Not available.
UV 3 out of 12
Pollen 6.30 out of 12
Air Quality Not available.
Flu Activity Not available.
METAR KPOF 231653Z AUTO 20003KT 9SM OVC034 29/23 A3000 RMK AO2 SLP155 T02940228

More Conditions Fewer Conditions

Pressure 29.99 in
Visibility 9.0 miles
Clouds Overcast 3400 ft
Heat Index 110 °F
Dew Point 81 °F
Humidity 76%
Rainfall 0.00 in
Snow Depth Not available.
UV 3 out of 12
Pollen 6.30 out of 12
Air Quality Not available.
Flu Activity Not available.
METAR KPOF 231653Z AUTO 20003KT 9SM OVC034 29/23 A3000 RMK AO2 SLP155 T02940228

More Conditions Fewer Conditions

10-Day Weather Forecast

Almanac

Astronomy

Jul. 23, 2014 Rise Set
Actual Time 6:02 AM CDT 8:18 PM CDT
Civil Twilight 5:32 AM CDT 8:47 PM CDT
Nautical Twilight 4:56 AM CDT 9:23 PM CDT
Astronomical Twilight 4:16 AM CDT 10:03 PM CDT
Moon 3:20 AM CDT 5:47 PM CDT
Length of Visible Light 15h 15m
Length of Day
14h 16m
Tomorrow will be 1m 31s shorter.
Waning Crescent, 9% of the Moon is Illuminated
Today
Waning Crescent
Jul 26
New
Aug 3
First Quarter
Aug 10
Full
Aug 17
Last Quarter

Today's Extremes

State Highs State Lows

Community

WunderPhotos

Upload Photos

1,736,684 photos uploaded!

Nearby

Snow Depth

Station Depth Elevation
No new snow has been reported.

Earthquake Activity

City Distance Mag. Time & Date
No recent earthquake activity has been reported nearby.
Minimum magnitude displayed is 2.5.

Coastal Water Temperatures

Place Temperature
No Stations Reporting

Nearby Weather Stations

Station Location Temp. Heat Index Dew Point Humidity Wind Precip. Elev Updated Type
RAWS BIG SPRING MO, Van Buren, MO 89 °F 103 °F 78 °F 70% North  at  1 mph 0.00 in / hr 631 ft 11:22 AM CDT MADIS
RAWS CARR CREEK MO, Ellington, MO 90 °F 110 °F 81 °F 76% ESE  at  1 mph 0.00 in / hr 1399 ft 11:35 AM CDT MADIS

Show More Stations Show Fewer Stations